createdAt,value
2018-03-08T00:00:28.903Z,3.60
2018-03-08T00:02:56.510Z,3.60
2018-03-08T00:05:24.122Z,3.60
2018-03-08T00:07:51.731Z,3.60
2018-03-08T00:16:15.536Z,3.60
2018-03-08T00:18:43.903Z,3.50
2018-03-08T00:21:12.254Z,3.50
2018-03-08T00:23:39.833Z,3.50
2018-03-08T00:26:08.232Z,3.40
2018-03-08T00:28:35.806Z,3.40
2018-03-08T00:31:03.398Z,3.40
2018-03-08T00:33:30.951Z,3.30
2018-03-08T00:35:58.539Z,3.40
2018-03-08T00:38:26.114Z,3.50
2018-03-08T00:40:54.528Z,3.60
2018-03-08T00:43:22.859Z,3.60
2018-03-08T00:45:50.504Z,3.60
2018-03-08T00:48:18.096Z,3.60
2018-03-08T00:50:46.448Z,3.60
2018-03-08T00:53:14.049Z,3.60
2018-03-08T00:55:41.644Z,3.60
2018-03-08T00:58:09.268Z,3.60
2018-03-08T01:00:36.853Z,3.50
2018-03-08T01:03:04.458Z,3.50
2018-03-08T01:05:32.076Z,3.50
2018-03-08T01:07:59.677Z,3.60
2018-03-08T01:10:27.261Z,3.70
2018-03-08T01:12:55.576Z,3.80
2018-03-08T01:15:23.154Z,3.80
2018-03-08T01:17:50.747Z,3.80
2018-03-08T01:20:19.117Z,3.80
2018-03-08T01:22:46.694Z,3.80
2018-03-08T01:25:15.074Z,3.80
2018-03-08T01:27:43.387Z,3.70
2018-03-08T01:30:10.987Z,3.70
2018-03-08T01:32:38.538Z,3.70
2018-03-08T01:35:06.198Z,3.70
2018-03-08T01:37:33.819Z,3.60
2018-03-08T01:40:01.388Z,3.60
2018-03-08T01:42:28.990Z,3.60
2018-03-08T01:44:56.614Z,3.60
2018-03-08T01:47:24.158Z,3.60
2018-03-08T01:49:51.730Z,3.50
2018-03-08T01:52:19.329Z,3.50
2018-03-08T01:54:46.923Z,3.50
2018-03-08T01:57:14.532Z,3.50
2018-03-08T01:59:42.167Z,3.40
2018-03-08T02:02:10.528Z,3.40
2018-03-08T02:04:38.097Z,3.40
2018-03-08T02:07:05.683Z,3.40
2018-03-08T02:09:33.290Z,3.40
2018-03-08T02:12:01.641Z,3.40
2018-03-08T02:14:29.195Z,3.40
2018-03-08T02:16:56.784Z,3.40
2018-03-08T02:19:25.133Z,3.30
2018-03-08T02:21:52.728Z,3.30
2018-03-08T02:24:20.307Z,3.40
2018-03-08T02:26:48.687Z,3.30
2018-03-08T02:29:16.269Z,3.30
2018-03-08T02:31:43.837Z,3.30
2018-03-08T02:34:11.407Z,3.30
2018-03-08T02:36:39.029Z,3.30
2018-03-08T02:39:06.635Z,3.20
2018-03-08T02:41:34.192Z,3.20
2018-03-08T02:44:01.824Z,3.20
2018-03-08T02:46:29.387Z,3.20
2018-03-08T02:48:56.994Z,3.10
2018-03-08T02:51:25.376Z,3.10
2018-03-08T02:53:53.778Z,3.10
2018-03-08T02:56:21.375Z,3.10
2018-03-08T02:58:49.017Z,3.20
2018-03-08T03:01:16.585Z,3.30
2018-03-08T03:03:44.208Z,3.30
2018-03-08T03:06:11.769Z,3.30
2018-03-08T03:08:39.364Z,3.30
2018-03-08T03:11:06.924Z,3.20
2018-03-08T03:13:34.490Z,3.20
2018-03-08T03:16:02.027Z,3.10
2018-03-08T03:18:29.627Z,3.10
2018-03-08T03:20:57.199Z,3.00
2018-03-08T03:23:24.815Z,3.00
2018-03-08T03:25:52.374Z,3.00
2018-03-08T03:28:19.990Z,2.90
2018-03-08T03:30:48.353Z,2.80
2018-03-08T03:33:15.930Z,2.70
2018-03-08T03:35:44.294Z,2.70
2018-03-08T03:38:11.898Z,2.70
2018-03-08T03:40:39.494Z,2.80
2018-03-08T03:43:07.040Z,2.70
2018-03-08T03:45:34.676Z,2.70
2018-03-08T03:48:02.286Z,2.70
2018-03-08T03:50:29.831Z,2.70
2018-03-08T03:52:57.397Z,2.80
2018-03-08T03:55:25.023Z,2.90
2018-03-08T03:57:52.638Z,2.90
2018-03-08T04:00:20.266Z,3.00
2018-03-08T04:02:47.837Z,3.10
2018-03-08T04:05:15.420Z,3.20
2018-03-08T04:07:43.037Z,3.20
2018-03-08T04:10:10.615Z,3.20
2018-03-08T04:12:38.198Z,3.20
2018-03-08T04:15:05.831Z,3.20
2018-03-08T04:17:33.451Z,3.20
2018-03-08T04:20:01.051Z,3.00
2018-03-08T04:22:28.622Z,2.80
2018-03-08T04:24:56.219Z,2.70
2018-03-08T04:30:23.915Z,2.50
2018-03-08T04:32:51.479Z,2.40
2018-03-08T04:35:19.086Z,2.30
2018-03-08T04:37:46.689Z,2.30
2018-03-08T04:40:14.298Z,2.10
2018-03-08T04:42:41.850Z,2.00
2018-03-08T04:45:09.455Z,1.90
2018-03-08T04:47:37.842Z,1.70
2018-03-08T04:50:06.187Z,1.60
2018-03-08T04:52:33.785Z,1.60
2018-03-08T04:55:01.370Z,1.50
2018-03-08T04:57:28.914Z,1.50
2018-03-08T04:59:56.492Z,1.60
2018-03-08T05:02:25.550Z,1.50
2018-03-08T05:04:53.149Z,1.40
2018-03-08T05:07:20.738Z,1.30
2018-03-08T05:09:48.295Z,1.30
2018-03-08T05:12:15.899Z,1.30
2018-03-08T05:14:43.470Z,1.20
2018-03-08T05:17:11.075Z,0.90
2018-03-08T05:19:38.710Z,0.70
2018-03-08T05:22:06.319Z,0.60
2018-03-08T05:24:33.861Z,0.50
2018-03-08T05:27:01.410Z,0.40
2018-03-08T05:29:29.029Z,0.70
2018-03-08T05:31:56.616Z,0.90
2018-03-08T05:34:24.179Z,0.90
2018-03-08T05:36:51.831Z,1.00
2018-03-08T05:51:08.171Z,0.40
2018-03-08T05:53:47.065Z,0.90
2018-03-08T05:56:15.566Z,0.90
2018-03-08T06:01:45.665Z,2.10
2018-03-08T06:04:17.165Z,2.10
2018-03-08T06:06:55.830Z,2.50
2018-03-08T06:09:23.405Z,2.50
2018-03-08T06:11:50.914Z,2.50
2018-03-08T06:14:18.518Z,2.60
2018-03-08T06:16:46.129Z,2.60
2018-03-08T06:19:13.719Z,2.70
2018-03-08T06:21:41.370Z,2.80
2018-03-08T06:24:08.983Z,2.80
2018-03-08T06:26:36.595Z,3.00
2018-03-08T06:29:17.636Z,3.10
2018-03-08T06:31:45.991Z,3.00
2018-03-08T06:34:13.590Z,3.00
2018-03-08T06:36:41.190Z,3.20
2018-03-08T06:39:08.769Z,3.30
2018-03-08T06:41:36.384Z,3.50
2018-03-08T06:44:03.942Z,3.70
2018-03-08T06:46:31.604Z,3.80
2018-03-08T06:48:59.202Z,4.10
2018-03-08T06:51:26.761Z,4.20
2018-03-08T06:53:54.395Z,4.30
2018-03-08T06:56:22.762Z,4.30
2018-03-08T06:58:50.384Z,4.30
2018-03-08T07:01:18.775Z,4.30
2018-03-08T07:03:47.121Z,4.40
2018-03-08T07:06:14.697Z,4.30
2018-03-08T07:08:43.059Z,5.00
2018-03-08T07:11:10.639Z,5.00
2018-03-08T07:19:40.389Z,5.80
2018-03-08T07:22:14.061Z,6.20
2018-03-08T07:24:41.640Z,6.10
2018-03-08T07:27:09.279Z,6.60
2018-03-08T07:29:36.879Z,7.00
2018-03-08T07:32:23.697Z,7.40
2018-03-08T07:34:51.272Z,7.90
2018-03-08T07:37:18.881Z,7.20
2018-03-08T07:39:46.430Z,6.50
2018-03-08T07:42:14.060Z,6.70
2018-03-08T07:44:41.621Z,7.70
2018-03-08T07:47:09.225Z,8.40
2018-03-08T07:49:37.595Z,7.60
2018-03-08T07:52:05.219Z,7.60
2018-03-08T07:54:54.286Z,7.40
2018-03-08T07:57:21.843Z,7.40
2018-03-08T07:59:49.422Z,7.70
2018-03-08T08:02:18.012Z,7.90
2018-03-08T08:04:57.527Z,7.80
2018-03-08T08:07:36.879Z,8.10
2018-03-08T08:10:04.451Z,8.10
2018-03-08T08:12:38.618Z,8.60
2018-03-08T08:20:55.866Z,9.10
2018-03-08T08:23:23.465Z,9.10
2018-03-08T08:25:51.065Z,10.20
2018-03-08T08:28:19.406Z,11.40
2018-03-08T08:30:47.031Z,11.40
2018-03-08T08:33:14.583Z,11.00
2018-03-08T08:35:42.970Z,9.90
2018-03-08T08:38:10.569Z,9.90
2018-03-08T08:40:38.179Z,10.10
2018-03-08T08:43:05.744Z,11.30
2018-03-08T08:51:32.435Z,11.40
2018-03-08T08:54:00.066Z,11.90
2018-03-08T08:56:35.554Z,13.80
2018-03-08T08:59:03.200Z,13.80
2018-03-08T09:07:32.228Z,12.10
2018-03-08T09:09:59.809Z,12.00
2018-03-08T09:12:27.401Z,12.60
2018-03-08T09:14:55.003Z,12.40
2018-03-08T09:17:22.607Z,11.40
2018-03-08T09:19:50.174Z,11.40
2018-03-08T09:22:17.756Z,11.20
2018-03-08T09:24:46.131Z,12.70
2018-03-08T09:27:13.684Z,12.70
2018-03-08T09:29:41.265Z,13.00
2018-03-08T09:32:09.639Z,12.60
2018-03-08T09:34:37.978Z,13.70
2018-03-08T09:37:05.641Z,13.70
2018-03-08T09:39:33.184Z,13.50
2018-03-08T09:42:00.792Z,14.00
2018-03-08T09:44:29.189Z,13.10
2018-03-08T09:46:57.555Z,13.60
2018-03-08T09:49:25.876Z,14.40
2018-03-08T09:51:53.468Z,14.40
2018-03-08T09:54:21.063Z,13.40
2018-03-08T09:56:48.703Z,13.40
2018-03-08T10:02:34.331Z,12.90
2018-03-08T10:05:01.962Z,13.60
2018-03-08T10:07:29.535Z,13.70
2018-03-08T10:09:57.911Z,14.20
2018-03-08T10:12:26.278Z,14.00
2018-03-08T10:14:53.900Z,13.90
2018-03-08T10:26:13.712Z,12.90
2018-03-08T10:28:41.316Z,12.90
2018-03-08T10:31:08.905Z,13.10
2018-03-08T10:33:36.525Z,13.50
2018-03-08T10:36:04.087Z,14.80
2018-03-08T10:38:31.671Z,14.10
2018-03-08T10:40:59.323Z,14.40
2018-03-08T10:43:26.997Z,11.90
2018-03-08T10:45:54.646Z,10.80
2018-03-08T10:48:22.279Z,10.00
2018-03-08T10:50:49.888Z,9.70
2018-03-08T10:53:17.511Z,9.50
2018-03-08T10:55:45.124Z,9.70
2018-03-08T10:58:13.507Z,10.30
2018-03-08T11:00:47.135Z,10.30
2018-03-08T11:03:14.727Z,10.90
2018-03-08T11:05:47.248Z,11.70
2018-03-08T11:08:14.889Z,11.40
2018-03-08T11:10:43.256Z,13.00
2018-03-08T11:13:11.616Z,13.40
2018-03-08T11:15:45.130Z,13.40
2018-03-08T11:18:12.769Z,13.60
2018-03-08T11:20:40.360Z,13.50
2018-03-08T11:23:07.988Z,12.90
2018-03-08T11:25:35.623Z,12.40
2018-03-08T11:28:03.224Z,12.30
2018-03-08T11:30:30.817Z,12.00
2018-03-08T11:32:59.204Z,11.50
2018-03-08T11:35:26.759Z,11.50
2018-03-08T11:37:55.153Z,11.60
2018-03-08T11:40:22.732Z,11.50
2018-03-08T11:42:50.315Z,11.60
2018-03-08T11:45:17.915Z,11.80
2018-03-08T11:47:46.293Z,11.70
2018-03-08T11:50:14.661Z,11.10
2018-03-08T11:52:43.035Z,10.90
2018-03-08T11:55:11.407Z,11.30
2018-03-08T11:57:42.445Z,11.20
2018-03-08T12:00:10.039Z,11.00
2018-03-08T12:02:37.619Z,11.20
2018-03-08T12:05:05.239Z,11.30
2018-03-08T12:07:33.600Z,11.10
2018-03-08T12:10:01.194Z,11.10
2018-03-08T12:12:28.781Z,11.60
2018-03-08T12:14:56.359Z,11.50
2018-03-08T12:17:23.960Z,12.00
2018-03-08T12:19:52.336Z,11.80
2018-03-08T12:22:20.660Z,12.00
2018-03-08T12:24:48.246Z,12.00
2018-03-08T12:27:15.849Z,12.40
2018-03-08T12:29:43.476Z,13.40
2018-03-08T12:32:11.099Z,13.90
2018-03-08T12:34:39.660Z,13.00
2018-03-08T12:37:07.281Z,12.30
2018-03-08T12:39:34.866Z,12.70
2018-03-08T12:42:03.219Z,12.40
2018-03-08T12:44:30.787Z,12.30
2018-03-08T12:46:59.339Z,12.90
2018-03-08T12:49:26.968Z,12.80
2018-03-08T12:51:54.528Z,13.40
2018-03-08T12:54:22.163Z,13.70
2018-03-08T12:56:50.514Z,13.00
2018-03-08T13:05:12.767Z,11.80
2018-03-08T13:07:40.391Z,11.80
2018-03-08T13:10:07.987Z,11.60
2018-03-08T13:12:35.547Z,11.80
2018-03-08T13:15:03.164Z,12.40
2018-03-08T13:17:30.720Z,12.70
2018-03-08T13:19:58.364Z,12.20
2018-03-08T13:22:26.719Z,12.60
2018-03-08T13:30:48.461Z,12.40
2018-03-08T13:33:23.800Z,12.40
2018-03-08T13:35:51.415Z,12.00
2018-03-08T13:38:31.019Z,12.00
2018-03-08T13:40:58.645Z,12.00
2018-03-08T13:43:26.209Z,13.10
2018-03-08T13:45:55.194Z,14.00
2018-03-08T13:48:22.761Z,14.00
2018-03-08T13:50:50.300Z,12.90
2018-03-08T13:53:18.590Z,12.00
2018-03-08T13:55:46.126Z,11.90
2018-03-08T13:58:13.646Z,11.90
2018-03-08T14:00:41.181Z,12.00
2018-03-08T14:03:08.727Z,12.10
2018-03-08T14:05:36.260Z,12.30
2018-03-08T14:08:04.563Z,12.70
2018-03-08T14:10:32.103Z,12.70
2018-03-08T14:13:00.475Z,12.60
2018-03-08T14:15:28.868Z,12.50
2018-03-08T14:17:57.189Z,12.50
2018-03-08T14:20:24.767Z,12.50
2018-03-08T14:22:52.356Z,12.80
2018-03-08T14:25:19.932Z,12.80
2018-03-08T14:27:47.536Z,12.20
2018-03-08T14:30:15.139Z,12.20
2018-03-08T14:32:43.499Z,12.60
2018-03-08T14:35:11.861Z,12.50
2018-03-08T14:37:39.463Z,12.50
2018-03-08T14:40:07.071Z,12.90
2018-03-08T14:42:34.637Z,13.00
2018-03-08T14:45:02.232Z,12.50
2018-03-08T14:47:29.812Z,13.00
2018-03-08T14:49:57.430Z,13.50
2018-03-08T14:52:25.020Z,13.50
2018-03-08T14:54:53.603Z,13.50
2018-03-08T14:57:21.214Z,13.50
2018-03-08T14:59:48.837Z,12.70
2018-03-08T15:05:23.380Z,12.10
2018-03-08T15:07:51.020Z,11.70
2018-03-08T15:10:18.633Z,11.70
2018-03-08T15:12:46.240Z,11.50
2018-03-08T15:15:13.863Z,11.40
2018-03-08T15:17:41.480Z,11.40
2018-03-08T15:20:09.068Z,11.50
2018-03-08T15:22:36.673Z,11.50
2018-03-08T15:25:05.080Z,11.40
2018-03-08T15:27:32.697Z,11.30
2018-03-08T15:30:01.108Z,11.20
2018-03-08T15:32:28.686Z,11.20
2018-03-08T15:34:56.275Z,11.30
2018-03-08T15:37:23.886Z,11.20
2018-03-08T15:39:51.518Z,11.10
2018-03-08T15:42:19.090Z,11.00
2018-03-08T15:44:46.676Z,11.00
2018-03-08T15:47:14.306Z,11.40
2018-03-08T15:49:42.650Z,11.30
2018-03-08T15:52:13.116Z,11.30
2018-03-08T15:54:41.459Z,11.00
2018-03-08T15:57:09.091Z,10.90
2018-03-08T15:59:36.735Z,10.80
2018-03-08T16:02:04.350Z,10.80
2018-03-08T16:04:31.957Z,10.70
2018-03-08T16:07:14.422Z,10.60
2018-03-08T16:09:53.904Z,10.50
2018-03-08T16:12:21.502Z,10.30
2018-03-08T16:14:49.143Z,10.20
2018-03-08T16:17:16.784Z,10.10
2018-03-08T16:19:44.339Z,10.10
2018-03-08T16:22:11.984Z,9.90
2018-03-08T16:24:40.348Z,10.00
2018-03-08T16:27:07.984Z,10.00
2018-03-08T16:29:35.603Z,10.00
2018-03-08T16:32:03.152Z,9.90
2018-03-08T16:34:31.519Z,9.80
2018-03-08T16:36:59.919Z,9.70
2018-03-08T16:39:27.494Z,9.70
2018-03-08T16:41:55.052Z,9.60
2018-03-08T16:44:22.647Z,9.60
2018-03-08T16:46:50.243Z,9.70
2018-03-08T16:49:18.645Z,9.70
2018-03-08T16:51:46.248Z,9.60
2018-03-08T16:54:13.823Z,9.60
2018-03-08T16:56:41.443Z,9.60
2018-03-08T17:02:04.663Z,9.20
2018-03-08T17:07:45.921Z,9.10
2018-03-08T17:10:13.469Z,8.90
2018-03-08T17:12:41.052Z,8.80
2018-03-08T17:15:08.620Z,8.60
2018-03-08T17:17:37.217Z,8.50
2018-03-08T17:20:04.880Z,8.40
2018-03-08T17:22:32.561Z,8.40
2018-03-08T17:25:00.160Z,8.40
2018-03-08T17:27:27.769Z,8.20
2018-03-08T17:29:55.362Z,8.00
2018-03-08T17:32:22.995Z,8.00
2018-03-08T17:34:50.571Z,8.00
2018-03-08T17:37:18.960Z,7.90
2018-03-08T17:39:46.574Z,7.90
2018-03-08T17:42:28.369Z,7.80
2018-03-08T17:45:04.415Z,7.70
2018-03-08T17:47:34.081Z,7.80
2018-03-08T17:50:01.713Z,7.80
2018-03-08T17:52:30.093Z,7.70
2018-03-08T17:54:58.456Z,7.70
2018-03-08T17:57:26.139Z,7.60
2018-03-08T17:59:57.688Z,7.60
2018-03-08T18:02:26.061Z,7.80
2018-03-08T18:04:54.478Z,7.60
2018-03-08T18:07:22.834Z,7.50
2018-03-08T18:09:50.482Z,7.50
2018-03-08T18:12:18.859Z,7.60
2018-03-08T18:14:47.272Z,7.70
2018-03-08T18:17:14.868Z,7.60
2018-03-08T18:19:42.496Z,7.70
2018-03-08T18:22:10.116Z,7.70
2018-03-08T18:24:38.468Z,7.80
2018-03-08T18:27:06.080Z,7.70
2018-03-08T18:29:34.284Z,7.80
2018-03-08T18:32:01.916Z,7.70
2018-03-08T18:34:29.491Z,7.60
2018-03-08T18:36:57.081Z,7.70
2018-03-08T18:39:24.680Z,7.40
2018-03-08T18:41:53.051Z,7.40
2018-03-08T18:44:22.444Z,7.50
2018-03-08T18:46:50.038Z,7.40
2018-03-08T18:49:17.620Z,7.50
2018-03-08T18:51:45.253Z,7.50
2018-03-08T18:54:12.858Z,7.40
2018-03-08T18:56:40.445Z,7.30
2018-03-08T18:59:08.050Z,7.40
2018-03-08T19:01:35.663Z,7.30
2018-03-08T19:04:03.308Z,7.20
2018-03-08T19:06:30.933Z,7.00
2018-03-08T19:08:58.539Z,6.90
2018-03-08T19:11:27.219Z,6.80
2018-03-08T19:14:08.164Z,6.90
2018-03-08T19:16:35.775Z,6.70
2018-03-08T19:19:03.419Z,6.70
2018-03-08T19:21:30.986Z,6.70
2018-03-08T19:23:58.624Z,6.60
2018-03-08T19:26:26.189Z,6.70
2018-03-08T19:28:53.794Z,6.70
2018-03-08T19:31:22.167Z,6.90
2018-03-08T19:36:59.782Z,6.80
2018-03-08T19:39:28.183Z,6.90
2018-03-08T19:41:55.803Z,6.90
2018-03-08T19:44:23.417Z,6.80
2018-03-08T19:46:51.035Z,7.10
2018-03-08T19:49:18.616Z,7.20
2018-03-08T19:51:46.240Z,7.10
2018-03-08T19:54:13.843Z,7.10
2018-03-08T19:56:41.479Z,7.10
2018-03-08T19:59:09.792Z,7.10
2018-03-08T20:01:37.393Z,7.10
2018-03-08T20:04:05.030Z,7.00
2018-03-08T20:06:32.634Z,6.90
2018-03-08T20:09:01.009Z,6.90
2018-03-08T20:11:28.610Z,6.90
2018-03-08T20:13:56.233Z,6.90
2018-03-08T20:16:24.588Z,6.90
2018-03-08T20:18:52.190Z,6.80
2018-03-08T20:21:20.582Z,7.10
2018-03-08T20:23:48.218Z,7.10
2018-03-08T20:26:16.664Z,7.40
2018-03-08T20:28:44.262Z,7.40
2018-03-08T20:31:12.609Z,7.50
2018-03-08T20:33:40.198Z,7.50
2018-03-08T20:36:07.840Z,7.50
2018-03-08T20:38:35.450Z,7.60
2018-03-08T20:41:03.062Z,7.50
2018-03-08T20:43:30.696Z,7.60
2018-03-08T20:45:58.321Z,7.60
2018-03-08T20:48:25.927Z,7.80
2018-03-08T20:50:53.516Z,7.70
2018-03-08T20:53:21.877Z,7.80
2018-03-08T20:55:49.517Z,7.80
2018-03-08T20:58:17.103Z,7.70
2018-03-08T21:00:44.716Z,7.80
2018-03-08T21:03:12.288Z,7.90
2018-03-08T21:05:39.903Z,8.00
2018-03-08T21:08:08.287Z,8.10
2018-03-08T21:10:37.823Z,8.00
2018-03-08T21:13:05.413Z,8.10
2018-03-08T21:15:33.002Z,8.00
2018-03-08T21:18:01.408Z,8.20
2018-03-08T21:20:28.970Z,8.20
2018-03-08T21:22:56.609Z,8.20
2018-03-08T21:25:24.256Z,8.30
2018-03-08T21:27:52.619Z,8.20
2018-03-08T21:30:20.252Z,8.20
2018-03-08T21:32:47.859Z,8.20
2018-03-08T21:35:16.225Z,8.20
2018-03-08T21:37:43.848Z,8.10
2018-03-08T21:40:11.533Z,8.10
2018-03-08T21:42:39.119Z,8.10
2018-03-08T21:45:07.518Z,8.20
2018-03-08T21:47:35.094Z,8.20
2018-03-08T21:50:02.719Z,8.10
2018-03-08T21:52:30.335Z,8.00
2018-03-08T21:54:57.948Z,8.00
2018-03-08T21:57:26.314Z,8.00
2018-03-08T21:59:54.710Z,8.20
2018-03-08T22:02:23.107Z,8.20
2018-03-08T22:04:50.696Z,8.10
2018-03-08T22:07:18.295Z,8.30
2018-03-08T22:09:46.633Z,8.40
2018-03-08T22:12:14.236Z,8.30
2018-03-08T22:14:41.823Z,8.40
2018-03-08T22:17:09.382Z,8.40
2018-03-08T22:19:36.971Z,8.50
2018-03-08T22:22:04.553Z,8.50
2018-03-08T22:24:32.121Z,8.60
2018-03-08T22:26:59.972Z,8.60
2018-03-08T22:29:27.543Z,8.60
2018-03-08T22:31:55.105Z,8.70
2018-03-08T22:34:22.742Z,8.70
2018-03-08T22:36:50.300Z,8.70
2018-03-08T22:39:17.880Z,8.70
2018-03-08T22:41:45.447Z,8.70
2018-03-08T22:44:13.045Z,8.70
2018-03-08T22:46:40.619Z,8.60
2018-03-08T22:49:08.216Z,8.60
2018-03-08T22:51:35.767Z,8.60
2018-03-08T22:54:03.406Z,8.50
2018-03-08T22:56:31.002Z,8.50
2018-03-08T22:58:58.618Z,8.40
2018-03-08T23:04:29.681Z,8.40
2018-03-08T23:06:57.198Z,8.20
2018-03-08T23:09:24.739Z,8.10
2018-03-08T23:11:52.371Z,7.90
2018-03-08T23:14:19.951Z,7.80
2018-03-08T23:16:47.591Z,7.70
2018-03-08T23:19:15.213Z,7.70
2018-03-08T23:21:42.879Z,7.60
2018-03-08T23:24:10.460Z,7.60
2018-03-08T23:26:38.067Z,7.60
2018-03-08T23:29:05.675Z,7.50
2018-03-08T23:31:33.243Z,7.50
2018-03-08T23:34:01.487Z,7.40
2018-03-08T23:36:29.068Z,7.40
2018-03-08T23:38:56.665Z,7.30
2018-03-08T23:41:24.238Z,7.10
2018-03-08T23:43:52.582Z,6.90
2018-03-08T23:46:20.168Z,6.70
2018-03-08T23:48:47.787Z,6.40
2018-03-08T23:51:15.404Z,6.20
2018-03-08T23:53:43.039Z,6.00
2018-03-08T23:56:10.614Z,5.90
2018-03-08T23:58:38.225Z,5.80
